sensor_id;sensor_type;location;lat;lon;timestamp;temperature;humidity
28189;DHT22;15471;51.166;4.470;2023-05-10T00:00:46;13.80;99.90
28189;DHT22;15471;51.166;4.470;2023-05-10T00:03:12;13.70;99.90
28189;DHT22;15471;51.166;4.470;2023-05-10T00:05:38;13.70;99.90
28189;DHT22;15471;51.166;4.470;2023-05-10T00:08:04;13.70;99.90
28189;DHT22;15471;51.166;4.470;2023-05-10T00:10:30;13.70;99.90
28189;DHT22;15471;51.166;4.470;2023-05-10T00:12:56;13.70;99.90
28189;DHT22;15471;51.166;4.470;2023-05-10T00:15:22;13.70;99.90
28189;DHT22;15471;51.166;4.470;2023-05-10T00:17:48;13.60;99.90
28189;DHT22;15471;51.166;4.470;2023-05-10T00:20:14;13.70;99.90
28189;DHT22;15471;51.166;4.470;2023-05-10T00:22:40;13.60;99.90
28189;DHT22;15471;51.166;4.470;2023-05-10T00:25:07;13.60;99.90
28189;DHT22;15471;51.166;4.470;2023-05-10T00:27:33;13.50;99.90
28189;DHT22;15471;51.166;4.470;2023-05-10T00:29:59;13.50;99.90
28189;DHT22;15471;51.166;4.470;2023-05-10T00:32:26;13.60;99.90
28189;DHT22;15471;51.166;4.470;2023-05-10T00:34:52;13.60;99.90
28189;DHT22;15471;51.166;4.470;2023-05-10T00:37:18;13.60;99.90
28189;DHT22;15471;51.166;4.470;2023-05-10T00:39:44;13.60;99.90
28189;DHT22;15471;51.166;4.470;2023-05-10T00:42:10;13.60;99.90
28189;DHT22;15471;51.166;4.470;2023-05-10T00:44:36;13.70;99.90
28189;DHT22;15471;51.166;4.470;2023-05-10T00:47:03;13.70;99.90
28189;DHT22;15471;51.166;4.470;2023-05-10T00:49:29;13.60;99.90
28189;DHT22;15471;51.166;4.470;2023-05-10T00:51:55;13.60;99.90
28189;DHT22;15471;51.166;4.470;2023-05-10T00:54:21;13.60;99.90
28189;DHT22;15471;51.166;4.470;2023-05-10T00:56:47;13.50;99.90
28189;DHT22;15471;51.166;4.470;2023-05-10T00:59:18;13.50;99.90
28189;DHT22;15471;51.166;4.470;2023-05-10T01:01:45;13.60;99.90
28189;DHT22;15471;51.166;4.470;2023-05-10T01:04:12;13.50;99.90
28189;DHT22;15471;51.166;4.470;2023-05-10T01:06:40;13.50;99.90
28189;DHT22;15471;51.166;4.470;2023-05-10T01:09:06;13.50;99.90
28189;DHT22;15471;51.166;4.470;2023-05-10T01:11:37;13.50;99.90
28189;DHT22;15471;51.166;4.470;2023-05-10T01:14:04;13.50;99.90
28189;DHT22;15471;51.166;4.470;2023-05-10T01:16:36;13.50;99.90
28189;DHT22;15471;51.166;4.470;2023-05-10T01:19:06;13.40;99.90
28189;DHT22;15471;51.166;4.470;2023-05-10T01:22:33;13.50;99.90
28189;DHT22;15471;51.166;4.470;2023-05-10T01:30:10;13.40;99.90
28189;DHT22;15471;51.166;4.470;2023-05-10T01:35:45;13.40;99.90
28189;DHT22;15471;51.166;4.470;2023-05-10T01:38:49;13.40;99.90
28189;DHT22;15471;51.166;4.470;2023-05-10T01:44:01;13.30;99.90
28189;DHT22;15471;51.166;4.470;2023-05-10T01:46:36;13.30;99.90
28189;DHT22;15471;51.166;4.470;2023-05-10T01:49:08;13.30;99.90
28189;DHT22;15471;51.166;4.470;2023-05-10T01:51:54;13.30;99.90
28189;DHT22;15471;51.166;4.470;2023-05-10T01:54:23;13.30;99.90
28189;DHT22;15471;51.166;4.470;2023-05-10T01:57:00;13.30;99.90
28189;DHT22;15471;51.166;4.470;2023-05-10T01:59:32;13.20;99.90
28189;DHT22;15471;51.166;4.470;2023-05-10T02:02:02;13.20;99.90
28189;DHT22;15471;51.166;4.470;2023-05-10T02:04:30;13.30;99.90
28189;DHT22;15471;51.166;4.470;2023-05-10T02:06:57;13.40;99.90
28189;DHT22;15471;51.166;4.470;2023-05-10T02:09:25;13.40;99.90
28189;DHT22;15471;51.166;4.470;2023-05-10T02:11:54;13.30;99.90
28189;DHT22;15471;51.166;4.470;2023-05-10T02:14:21;13.30;99.90
28189;DHT22;15471;51.166;4.470;2023-05-10T02:16:48;13.30;99.90
28189;DHT22;15471;51.166;4.470;2023-05-10T02:19:17;13.30;99.90
28189;DHT22;15471;51.166;4.470;2023-05-10T02:21:44;13.20;99.90
28189;DHT22;15471;51.166;4.470;2023-05-10T02:24:11;13.10;99.90
28189;DHT22;15471;51.166;4.470;2023-05-10T02:26:38;13.10;99.90
28189;DHT22;15471;51.166;4.470;2023-05-10T02:29:06;13.00;99.90
28189;DHT22;15471;51.166;4.470;2023-05-10T02:31:33;13.00;99.90
28189;DHT22;15471;51.166;4.470;2023-05-10T02:34:01;13.00;99.90
28189;DHT22;15471;51.166;4.470;2023-05-10T02:36:27;13.10;99.90
28189;DHT22;15471;51.166;4.470;2023-05-10T02:38:54;13.10;99.90
28189;DHT22;15471;51.166;4.470;2023-05-10T02:41:24;13.10;99.90
28189;DHT22;15471;51.166;4.470;2023-05-10T02:43:55;13.20;99.90
28189;DHT22;15471;51.166;4.470;2023-05-10T02:46:23;13.20;99.90
28189;DHT22;15471;51.166;4.470;2023-05-10T02:48:49;13.20;99.90
28189;DHT22;15471;51.166;4.470;2023-05-10T02:51:16;13.20;99.90
28189;DHT22;15471;51.166;4.470;2023-05-10T02:53:45;13.10;99.90
28189;DHT22;15471;51.166;4.470;2023-05-10T02:56:20;13.00;99.90
28189;DHT22;15471;51.166;4.470;2023-05-10T02:58:51;13.00;99.90
28189;DHT22;15471;51.166;4.470;2023-05-10T03:01:17;12.90;99.90
28189;DHT22;15471;51.166;4.470;2023-05-10T03:03:50;12.90;99.90
28189;DHT22;15471;51.166;4.470;2023-05-10T03:06:42;12.90;99.90
28189;DHT22;15471;51.166;4.470;2023-05-10T03:09:09;12.90;99.90
28189;DHT22;15471;51.166;4.470;2023-05-10T03:12:07;12.90;99.90
28189;DHT22;15471;51.166;4.470;2023-05-10T03:17:41;12.80;99.90
28189;DHT22;15471;51.166;4.470;2023-05-10T03:20:29;12.70;99.90
28189;DHT22;15471;51.166;4.470;2023-05-10T03:23:07;12.70;99.90
28189;DHT22;15471;51.166;4.470;2023-05-10T03:25:35;12.60;99.90
28189;DHT22;15471;51.166;4.470;2023-05-10T03:28:16;12.50;99.90
28189;DHT22;15471;51.166;4.470;2023-05-10T03:30:46;12.50;99.90
28189;DHT22;15471;51.166;4.470;2023-05-10T03:33:13;12.60;99.90
28189;DHT22;15471;51.166;4.470;2023-05-10T03:35:47;12.50;99.90
28189;DHT22;15471;51.166;4.470;2023-05-10T03:38:36;12.40;99.90
28189;DHT22;15471;51.166;4.470;2023-05-10T03:49:50;12.40;99.90
28189;DHT22;15471;51.166;4.470;2023-05-10T03:52:28;12.40;99.90
28189;DHT22;15471;51.166;4.470;2023-05-10T03:55:13;12.30;99.90
28189;DHT22;15471;51.166;4.470;2023-05-10T04:02:37;12.30;99.90
28189;DHT22;15471;51.166;4.470;2023-05-10T04:05:04;12.30;99.90
28189;DHT22;15471;51.166;4.470;2023-05-10T04:07:37;12.20;99.90
28189;DHT22;15471;51.166;4.470;2023-05-10T04:10:04;12.20;99.90
28189;DHT22;15471;51.166;4.470;2023-05-10T04:12:31;12.30;99.90
28189;DHT22;15471;51.166;4.470;2023-05-10T04:14:57;12.30;99.90
28189;DHT22;15471;51.166;4.470;2023-05-10T04:17:23;12.50;99.90
28189;DHT22;15471;51.166;4.470;2023-05-10T04:19:50;12.50;99.90
28189;DHT22;15471;51.166;4.470;2023-05-10T04:25:48;12.60;99.90
28189;DHT22;15471;51.166;4.470;2023-05-10T04:28:15;12.70;99.90
28189;DHT22;15471;51.166;4.470;2023-05-10T04:30:42;12.70;99.90
28189;DHT22;15471;51.166;4.470;2023-05-10T04:33:08;12.70;99.90
28189;DHT22;15471;51.166;4.470;2023-05-10T04:35:35;12.60;99.90
28189;DHT22;15471;51.166;4.470;2023-05-10T04:38:01;12.80;99.90
28189;DHT22;15471;51.166;4.470;2023-05-10T04:44:54;12.90;99.90
28189;DHT22;15471;51.166;4.470;2023-05-10T04:47:21;12.70;99.90
28189;DHT22;15471;51.166;4.470;2023-05-10T04:49:47;12.70;99.90
28189;DHT22;15471;51.166;4.470;2023-05-10T04:52:13;12.60;99.90
28189;DHT22;15471;51.166;4.470;2023-05-10T04:54:43;12.60;99.90
28189;DHT22;15471;51.166;4.470;2023-05-10T04:57:09;12.60;99.90
28189;DHT22;15471;51.166;4.470;2023-05-10T04:59:36;12.60;99.90
28189;DHT22;15471;51.166;4.470;2023-05-10T05:02:03;12.50;99.90
28189;DHT22;15471;51.166;4.470;2023-05-10T05:04:30;12.50;99.90
28189;DHT22;15471;51.166;4.470;2023-05-10T05:06:56;12.60;99.90
28189;DHT22;15471;51.166;4.470;2023-05-10T05:09:23;12.60;99.90
28189;DHT22;15471;51.166;4.470;2023-05-10T05:11:49;12.60;99.90
28189;DHT22;15471;51.166;4.470;2023-05-10T05:14:15;12.60;99.90
28189;DHT22;15471;51.166;4.470;2023-05-10T05:16:41;12.70;99.90
28189;DHT22;15471;51.166;4.470;2023-05-10T05:19:07;12.70;99.90
28189;DHT22;15471;51.166;4.470;2023-05-10T05:21:34;13.00;99.90
28189;DHT22;15471;51.166;4.470;2023-05-10T05:24:00;12.90;99.90
28189;DHT22;15471;51.166;4.470;2023-05-10T05:26:26;12.90;99.90
28189;DHT22;15471;51.166;4.470;2023-05-10T05:28:53;13.10;99.90
28189;DHT22;15471;51.166;4.470;2023-05-10T05:31:20;13.20;99.90
28189;DHT22;15471;51.166;4.470;2023-05-10T05:33:46;13.30;99.90
28189;DHT22;15471;51.166;4.470;2023-05-10T05:36:12;13.50;99.90
28189;DHT22;15471;51.166;4.470;2023-05-10T05:38:39;13.50;99.90
28189;DHT22;15471;51.166;4.470;2023-05-10T05:41:05;13.40;99.90
28189;DHT22;15471;51.166;4.470;2023-05-10T05:43:31;13.30;99.90
28189;DHT22;15471;51.166;4.470;2023-05-10T05:45:57;13.30;99.90
28189;DHT22;15471;51.166;4.470;2023-05-10T05:48:23;13.40;99.90
28189;DHT22;15471;51.166;4.470;2023-05-10T05:50:49;13.50;99.90
28189;DHT22;15471;51.166;4.470;2023-05-10T05:53:19;13.60;99.90
28189;DHT22;15471;51.166;4.470;2023-05-10T05:55:55;13.60;99.90
28189;DHT22;15471;51.166;4.470;2023-05-10T05:58:22;13.60;99.90
28189;DHT22;15471;51.166;4.470;2023-05-10T06:00:48;13.70;99.90
28189;DHT22;15471;51.166;4.470;2023-05-10T06:03:14;13.70;99.90
28189;DHT22;15471;51.166;4.470;2023-05-10T06:05:41;13.60;99.90
28189;DHT22;15471;51.166;4.470;2023-05-10T06:08:07;13.70;99.90
28189;DHT22;15471;51.166;4.470;2023-05-10T06:10:33;13.80;99.90
28189;DHT22;15471;51.166;4.470;2023-05-10T06:12:59;13.80;99.90
28189;DHT22;15471;51.166;4.470;2023-05-10T06:15:28;13.90;99.90
28189;DHT22;15471;51.166;4.470;2023-05-10T06:17:54;14.10;99.90
28189;DHT22;15471;51.166;4.470;2023-05-10T06:20:23;14.10;99.90
28189;DHT22;15471;51.166;4.470;2023-05-10T06:23:09;14.00;99.90
28189;DHT22;15471;51.166;4.470;2023-05-10T06:26:04;14.10;99.90
28189;DHT22;15471;51.166;4.470;2023-05-10T06:29:00;14.20;99.90
28189;DHT22;15471;51.166;4.470;2023-05-10T06:31:27;14.40;99.90
28189;DHT22;15471;51.166;4.470;2023-05-10T06:34:09;14.50;99.90
28189;DHT22;15471;51.166;4.470;2023-05-10T06:36:44;14.30;99.90
28189;DHT22;15471;51.166;4.470;2023-05-10T06:39:11;14.20;99.90
28189;DHT22;15471;51.166;4.470;2023-05-10T06:42:01;14.30;99.90
28189;DHT22;15471;51.166;4.470;2023-05-10T06:44:38;14.20;99.90
28189;DHT22;15471;51.166;4.470;2023-05-10T06:47:05;14.20;99.90
28189;DHT22;15471;51.166;4.470;2023-05-10T06:49:31;14.40;99.90
28189;DHT22;15471;51.166;4.470;2023-05-10T06:51:57;14.30;99.90
28189;DHT22;15471;51.166;4.470;2023-05-10T06:54:26;14.30;99.90
28189;DHT22;15471;51.166;4.470;2023-05-10T06:56:57;14.40;99.90
28189;DHT22;15471;51.166;4.470;2023-05-10T06:59:33;14.50;99.90
28189;DHT22;15471;51.166;4.470;2023-05-10T07:01:59;14.60;99.90
28189;DHT22;15471;51.166;4.470;2023-05-10T07:04:35;14.60;99.90
28189;DHT22;15471;51.166;4.470;2023-05-10T07:07:01;14.60;99.90
28189;DHT22;15471;51.166;4.470;2023-05-10T07:09:27;14.60;99.90
28189;DHT22;15471;51.166;4.470;2023-05-10T07:11:53;14.80;99.90
28189;DHT22;15471;51.166;4.470;2023-05-10T07:14:22;14.70;99.90
28189;DHT22;15471;51.166;4.470;2023-05-10T07:16:48;14.70;99.90
28189;DHT22;15471;51.166;4.470;2023-05-10T07:19:14;14.50;99.90
28189;DHT22;15471;51.166;4.470;2023-05-10T07:21:40;14.50;99.90
28189;DHT22;15471;51.166;4.470;2023-05-10T07:24:09;14.40;99.90
28189;DHT22;15471;51.166;4.470;2023-05-10T07:26:35;14.50;99.90
28189;DHT22;15471;51.166;4.470;2023-05-10T07:29:01;14.70;99.90
28189;DHT22;15471;51.166;4.470;2023-05-10T07:31:30;14.70;99.90
28189;DHT22;15471;51.166;4.470;2023-05-10T07:34:01;14.90;99.90
28189;DHT22;15471;51.166;4.470;2023-05-10T07:36:38;15.00;99.90
28189;DHT22;15471;51.166;4.470;2023-05-10T07:39:10;14.90;99.90
28189;DHT22;15471;51.166;4.470;2023-05-10T07:41:36;14.80;99.90
28189;DHT22;15471;51.166;4.470;2023-05-10T07:44:03;14.90;99.90
28189;DHT22;15471;51.166;4.470;2023-05-10T07:46:32;15.00;99.90
28189;DHT22;15471;51.166;4.470;2023-05-10T07:48:58;15.40;99.90
28189;DHT22;15471;51.166;4.470;2023-05-10T07:51:24;15.60;99.90
28189;DHT22;15471;51.166;4.470;2023-05-10T07:53:50;15.60;99.90
28189;DHT22;15471;51.166;4.470;2023-05-10T07:56:27;15.40;99.90
28189;DHT22;15471;51.166;4.470;2023-05-10T07:58:55;15.30;99.90
28189;DHT22;15471;51.166;4.470;2023-05-10T08:01:22;15.20;99.90
28189;DHT22;15471;51.166;4.470;2023-05-10T08:03:49;15.20;99.90
28189;DHT22;15471;51.166;4.470;2023-05-10T08:06:17;15.20;99.90
28189;DHT22;15471;51.166;4.470;2023-05-10T08:08:45;15.30;99.90
28189;DHT22;15471;51.166;4.470;2023-05-10T08:11:17;15.20;99.90
28189;DHT22;15471;51.166;4.470;2023-05-10T08:13:47;15.20;99.90
28189;DHT22;15471;51.166;4.470;2023-05-10T08:16:20;15.40;99.90
28189;DHT22;15471;51.166;4.470;2023-05-10T08:18:47;15.60;99.90
28189;DHT22;15471;51.166;4.470;2023-05-10T08:21:43;15.60;99.90
28189;DHT22;15471;51.166;4.470;2023-05-10T08:24:10;15.60;99.90
28189;DHT22;15471;51.166;4.470;2023-05-10T08:26:36;15.90;99.90
28189;DHT22;15471;51.166;4.470;2023-05-10T08:29:07;16.30;99.90
28189;DHT22;15471;51.166;4.470;2023-05-10T08:31:33;16.60;99.90
28189;DHT22;15471;51.166;4.470;2023-05-10T08:34:02;16.60;99.90
28189;DHT22;15471;51.166;4.470;2023-05-10T08:36:28;16.70;99.90
28189;DHT22;15471;51.166;4.470;2023-05-10T08:38:54;16.50;99.90
28189;DHT22;15471;51.166;4.470;2023-05-10T08:41:42;16.40;99.90
28189;DHT22;15471;51.166;4.470;2023-05-10T08:44:19;16.30;99.90
28189;DHT22;15471;51.166;4.470;2023-05-10T08:46:47;16.10;99.90
28189;DHT22;15471;51.166;4.470;2023-05-10T08:49:20;15.80;99.90
28189;DHT22;15471;51.166;4.470;2023-05-10T08:51:52;15.80;99.90
28189;DHT22;15471;51.166;4.470;2023-05-10T08:54:23;15.90;99.90
28189;DHT22;15471;51.166;4.470;2023-05-10T08:56:49;15.90;99.90
28189;DHT22;15471;51.166;4.470;2023-05-10T08:59:20;16.20;99.90
28189;DHT22;15471;51.166;4.470;2023-05-10T09:01:47;16.50;99.90
28189;DHT22;15471;51.166;4.470;2023-05-10T09:04:15;16.40;99.90
28189;DHT22;15471;51.166;4.470;2023-05-10T09:06:41;16.30;99.90
28189;DHT22;15471;51.166;4.470;2023-05-10T09:09:07;16.30;99.90
28189;DHT22;15471;51.166;4.470;2023-05-10T09:11:33;16.20;99.90
28189;DHT22;15471;51.166;4.470;2023-05-10T09:14:01;15.90;99.90
28189;DHT22;15471;51.166;4.470;2023-05-10T09:16:38;16.00;99.90
28189;DHT22;15471;51.166;4.470;2023-05-10T09:19:06;16.20;99.90
28189;DHT22;15471;51.166;4.470;2023-05-10T09:21:35;16.40;99.90
28189;DHT22;15471;51.166;4.470;2023-05-10T09:24:08;16.70;99.90
28189;DHT22;15471;51.166;4.470;2023-05-10T09:26:45;16.80;99.90
28189;DHT22;15471;51.166;4.470;2023-05-10T09:29:13;16.50;99.90
28189;DHT22;15471;51.166;4.470;2023-05-10T09:31:50;16.30;99.90
28189;DHT22;15471;51.166;4.470;2023-05-10T09:34:31;16.00;99.90
28189;DHT22;15471;51.166;4.470;2023-05-10T09:37:01;15.80;99.90
28189;DHT22;15471;51.166;4.470;2023-05-10T09:39:33;15.60;99.90
28189;DHT22;15471;51.166;4.470;2023-05-10T09:42:10;15.60;99.90
28189;DHT22;15471;51.166;4.470;2023-05-10T09:45:00;15.40;99.90
28189;DHT22;15471;51.166;4.470;2023-05-10T09:47:26;15.60;99.90
28189;DHT22;15471;51.166;4.470;2023-05-10T09:49:53;15.70;99.90
28189;DHT22;15471;51.166;4.470;2023-05-10T09:52:48;15.80;99.90
28189;DHT22;15471;51.166;4.470;2023-05-10T09:55:22;15.90;99.90
28189;DHT22;15471;51.166;4.470;2023-05-10T09:57:49;16.00;99.90
28189;DHT22;15471;51.166;4.470;2023-05-10T10:00:46;16.10;99.90
28189;DHT22;15471;51.166;4.470;2023-05-10T10:03:30;16.00;99.90
28189;DHT22;15471;51.166;4.470;2023-05-10T10:05:57;15.80;99.90
28189;DHT22;15471;51.166;4.470;2023-05-10T10:08:23;15.60;99.90
28189;DHT22;15471;51.166;4.470;2023-05-10T10:10:59;15.50;99.90
28189;DHT22;15471;51.166;4.470;2023-05-10T10:17:19;15.50;99.90
28189;DHT22;15471;51.166;4.470;2023-05-10T10:23:51;16.30;99.90
28189;DHT22;15471;51.166;4.470;2023-05-10T10:26:22;17.00;99.90
28189;DHT22;15471;51.166;4.470;2023-05-10T10:34:59;18.00;99.90
28189;DHT22;15471;51.166;4.470;2023-05-10T10:59:20;18.10;99.90
28189;DHT22;15471;51.166;4.470;2023-05-10T11:15:38;17.20;99.90
28189;DHT22;15471;51.166;4.470;2023-05-10T11:22:17;16.50;99.90
28189;DHT22;15471;51.166;4.470;2023-05-10T11:24:57;16.20;99.90
28189;DHT22;15471;51.166;4.470;2023-05-10T11:34:51;15.90;99.90
28189;DHT22;15471;51.166;4.470;2023-05-10T11:37:55;15.70;99.90
28189;DHT22;15471;51.166;4.470;2023-05-10T11:40:44;15.70;99.90
28189;DHT22;15471;51.166;4.470;2023-05-10T11:43:17;15.70;99.90
28189;DHT22;15471;51.166;4.470;2023-05-10T11:45:46;15.60;99.90
28189;DHT22;15471;51.166;4.470;2023-05-10T11:48:25;15.60;99.90
28189;DHT22;15471;51.166;4.470;2023-05-10T11:50:54;15.70;99.90
28189;DHT22;15471;51.166;4.470;2023-05-10T11:53:30;15.70;99.90
28189;DHT22;15471;51.166;4.470;2023-05-10T11:59:46;16.00;99.90
28189;DHT22;15471;51.166;4.470;2023-05-10T12:10:13;16.20;99.90
28189;DHT22;15471;51.166;4.470;2023-05-10T12:13:22;16.40;99.90
28189;DHT22;15471;51.166;4.470;2023-05-10T12:15:48;16.40;99.90
28189;DHT22;15471;51.166;4.470;2023-05-10T12:18:14;16.50;99.90
28189;DHT22;15471;51.166;4.470;2023-05-10T12:20:43;16.60;99.90
28189;DHT22;15471;51.166;4.470;2023-05-10T12:23:11;16.60;99.90
28189;DHT22;15471;51.166;4.470;2023-05-10T12:25:38;16.50;99.90
28189;DHT22;15471;51.166;4.470;2023-05-10T12:28:08;16.20;99.90
28189;DHT22;15471;51.166;4.470;2023-05-10T12:30:45;16.30;99.90
28189;DHT22;15471;51.166;4.470;2023-05-10T12:33:21;16.20;99.90
28189;DHT22;15471;51.166;4.470;2023-05-10T12:36:53;16.30;99.90
28189;DHT22;15471;51.166;4.470;2023-05-10T12:40:57;16.40;99.90
28189;DHT22;15471;51.166;4.470;2023-05-10T12:43:35;16.60;99.90
28189;DHT22;15471;51.166;4.470;2023-05-10T12:46:06;16.70;99.90
28189;DHT22;15471;51.166;4.470;2023-05-10T12:48:43;16.70;99.90
28189;DHT22;15471;51.166;4.470;2023-05-10T12:51:10;16.80;99.90
28189;DHT22;15471;51.166;4.470;2023-05-10T12:53:44;16.80;99.90
28189;DHT22;15471;51.166;4.470;2023-05-10T12:56:11;16.90;99.90
28189;DHT22;15471;51.166;4.470;2023-05-10T16:15:24;15.10;99.90
28189;DHT22;15471;51.166;4.470;2023-05-10T16:17:52;15.00;99.90
28189;DHT22;15471;51.166;4.470;2023-05-10T16:20:19;14.70;99.90
28189;DHT22;15471;51.166;4.470;2023-05-10T16:22:46;14.70;99.90
28189;DHT22;15471;51.166;4.470;2023-05-10T16:25:13;14.60;99.90
28189;DHT22;15471;51.166;4.470;2023-05-10T16:27:39;14.50;99.90
28189;DHT22;15471;51.166;4.470;2023-05-10T16:30:06;14.50;99.90
28189;DHT22;15471;51.166;4.470;2023-05-10T16:32:32;14.50;99.90
28189;DHT22;15471;51.166;4.470;2023-05-10T16:34:58;14.60;99.90
28189;DHT22;15471;51.166;4.470;2023-05-10T16:37:25;14.60;99.90
28189;DHT22;15471;51.166;4.470;2023-05-10T16:39:51;14.60;99.90
28189;DHT22;15471;51.166;4.470;2023-05-10T16:42:17;14.70;99.90
28189;DHT22;15471;51.166;4.470;2023-05-10T16:44:43;14.80;99.90
28189;DHT22;15471;51.166;4.470;2023-05-10T16:47:09;14.90;99.90
28189;DHT22;15471;51.166;4.470;2023-05-10T16:49:35;14.80;99.90
28189;DHT22;15471;51.166;4.470;2023-05-10T16:52:02;14.50;99.90
28189;DHT22;15471;51.166;4.470;2023-05-10T16:54:28;14.40;99.90
28189;DHT22;15471;51.166;4.470;2023-05-10T16:56:54;14.20;99.90
28189;DHT22;15471;51.166;4.470;2023-05-10T16:59:21;14.00;99.90
28189;DHT22;15471;51.166;4.470;2023-05-10T17:01:47;14.10;99.90
28189;DHT22;15471;51.166;4.470;2023-05-10T17:04:13;14.10;99.90
28189;DHT22;15471;51.166;4.470;2023-05-10T17:06:39;14.10;99.90
28189;DHT22;15471;51.166;4.470;2023-05-10T17:09:06;14.00;99.90
28189;DHT22;15471;51.166;4.470;2023-05-10T17:11:32;13.90;99.90
28189;DHT22;15471;51.166;4.470;2023-05-10T17:13:59;13.90;99.90
28189;DHT22;15471;51.166;4.470;2023-05-10T17:16:26;13.90;99.90
28189;DHT22;15471;51.166;4.470;2023-05-10T17:18:52;13.70;99.90
28189;DHT22;15471;51.166;4.470;2023-05-10T17:21:18;13.60;99.90
28189;DHT22;15471;51.166;4.470;2023-05-10T17:23:44;13.60;99.90
28189;DHT22;15471;51.166;4.470;2023-05-10T17:26:11;13.60;99.90
28189;DHT22;15471;51.166;4.470;2023-05-10T17:28:37;13.60;99.90
28189;DHT22;15471;51.166;4.470;2023-05-10T17:31:03;13.50;99.90
28189;DHT22;15471;51.166;4.470;2023-05-10T17:33:30;13.50;99.90
28189;DHT22;15471;51.166;4.470;2023-05-10T17:35:56;13.50;99.90
28189;DHT22;15471;51.166;4.470;2023-05-10T17:38:22;13.60;99.90
28189;DHT22;15471;51.166;4.470;2023-05-10T17:40:50;13.60;99.90
28189;DHT22;15471;51.166;4.470;2023-05-10T17:43:16;13.50;99.90
28189;DHT22;15471;51.166;4.470;2023-05-10T17:45:42;13.40;99.90
28189;DHT22;15471;51.166;4.470;2023-05-10T17:48:09;13.30;99.90
28189;DHT22;15471;51.166;4.470;2023-05-10T17:50:36;13.40;99.90
28189;DHT22;15471;51.166;4.470;2023-05-10T17:53:02;13.50;99.90
28189;DHT22;15471;51.166;4.470;2023-05-10T17:55:28;13.60;99.90
28189;DHT22;15471;51.166;4.470;2023-05-10T17:57:55;13.60;99.90
28189;DHT22;15471;51.166;4.470;2023-05-10T18:00:24;13.70;99.90
28189;DHT22;15471;51.166;4.470;2023-05-10T18:02:50;13.60;99.90
28189;DHT22;15471;51.166;4.470;2023-05-10T18:05:16;13.50;99.90
28189;DHT22;15471;51.166;4.470;2023-05-10T18:07:42;13.50;99.90
28189;DHT22;15471;51.166;4.470;2023-05-10T18:10:09;13.40;99.90
28189;DHT22;15471;51.166;4.470;2023-05-10T18:12:35;13.40;99.90
28189;DHT22;15471;51.166;4.470;2023-05-10T18:15:01;13.40;99.90
28189;DHT22;15471;51.166;4.470;2023-05-10T18:17:27;13.30;99.90
28189;DHT22;15471;51.166;4.470;2023-05-10T18:19:54;13.10;99.90
28189;DHT22;15471;51.166;4.470;2023-05-10T18:22:20;13.00;99.90
28189;DHT22;15471;51.166;4.470;2023-05-10T18:25:44;13.10;99.90
28189;DHT22;15471;51.166;4.470;2023-05-10T18:29:46;13.10;99.90
28189;DHT22;15471;51.166;4.470;2023-05-10T18:33:55;13.30;99.90
28189;DHT22;15471;51.166;4.470;2023-05-10T18:37:30;13.30;99.90
28189;DHT22;15471;51.166;4.470;2023-05-10T18:41:23;13.40;99.90
28189;DHT22;15471;51.166;4.470;2023-05-10T18:44:46;13.30;99.90
28189;DHT22;15471;51.166;4.470;2023-05-10T18:48:27;13.30;99.90
28189;DHT22;15471;51.166;4.470;2023-05-10T18:55:40;13.10;99.90
28189;DHT22;15471;51.166;4.470;2023-05-10T18:58:27;13.00;99.90
28189;DHT22;15471;51.166;4.470;2023-05-10T19:02:03;12.90;99.90
28189;DHT22;15471;51.166;4.470;2023-05-10T19:04:51;12.90;99.90
28189;DHT22;15471;51.166;4.470;2023-05-10T19:07:26;12.90;99.90
28189;DHT22;15471;51.166;4.470;2023-05-10T19:10:38;12.90;99.90
28189;DHT22;15471;51.166;4.470;2023-05-10T19:13:21;12.80;99.90
28189;DHT22;15471;51.166;4.470;2023-05-10T19:16:22;12.70;99.90
28189;DHT22;15471;51.166;4.470;2023-05-10T19:19:04;12.70;99.90
28189;DHT22;15471;51.166;4.470;2023-05-10T19:21:40;12.70;99.90
28189;DHT22;15471;51.166;4.470;2023-05-10T19:24:49;12.80;99.90
28189;DHT22;15471;51.166;4.470;2023-05-10T19:32:05;12.90;99.90
28189;DHT22;15471;51.166;4.470;2023-05-10T19:34:38;13.00;99.90
28189;DHT22;15471;51.166;4.470;2023-05-10T19:37:16;13.00;99.90
28189;DHT22;15471;51.166;4.470;2023-05-10T19:39:47;12.90;99.90
28189;DHT22;15471;51.166;4.470;2023-05-10T19:42:17;13.00;99.90
28189;DHT22;15471;51.166;4.470;2023-05-10T19:44:44;13.00;99.90
28189;DHT22;15471;51.166;4.470;2023-05-10T19:47:10;13.00;99.90
28189;DHT22;15471;51.166;4.470;2023-05-10T19:49:54;13.10;99.90
28189;DHT22;15471;51.166;4.470;2023-05-10T19:52:51;13.10;99.90
28189;DHT22;15471;51.166;4.470;2023-05-10T19:55:32;13.10;99.90
28189;DHT22;15471;51.166;4.470;2023-05-10T19:58:08;13.10;99.90
28189;DHT22;15471;51.166;4.470;2023-05-10T20:00:50;13.10;99.90
28189;DHT22;15471;51.166;4.470;2023-05-10T20:03:18;13.20;99.90
28189;DHT22;15471;51.166;4.470;2023-05-10T20:05:44;13.20;99.90
28189;DHT22;15471;51.166;4.470;2023-05-10T20:08:25;13.30;99.90
28189;DHT22;15471;51.166;4.470;2023-05-10T20:10:56;13.30;99.90
28189;DHT22;15471;51.166;4.470;2023-05-10T20:13:24;13.50;99.90
28189;DHT22;15471;51.166;4.470;2023-05-10T20:16:00;13.50;99.90
28189;DHT22;15471;51.166;4.470;2023-05-10T20:18:36;13.60;99.90
28189;DHT22;15471;51.166;4.470;2023-05-10T20:21:05;13.60;99.90
28189;DHT22;15471;51.166;4.470;2023-05-10T20:23:31;13.60;99.90
28189;DHT22;15471;51.166;4.470;2023-05-10T20:26:02;13.60;99.90
28189;DHT22;15471;51.166;4.470;2023-05-10T20:28:34;13.60;99.90
28189;DHT22;15471;51.166;4.470;2023-05-10T20:31:03;13.60;99.90
28189;DHT22;15471;51.166;4.470;2023-05-10T20:33:29;13.60;99.90
28189;DHT22;15471;51.166;4.470;2023-05-10T20:35:58;13.60;99.90
28189;DHT22;15471;51.166;4.470;2023-05-10T20:38:24;13.50;99.90
28189;DHT22;15471;51.166;4.470;2023-05-10T20:40:50;13.50;99.90
28189;DHT22;15471;51.166;4.470;2023-05-10T20:43:16;13.50;99.90
28189;DHT22;15471;51.166;4.470;2023-05-10T20:45:43;13.40;99.90
28189;DHT22;15471;51.166;4.470;2023-05-10T20:48:09;13.40;99.90
28189;DHT22;15471;51.166;4.470;2023-05-10T20:50:35;13.40;99.90
28189;DHT22;15471;51.166;4.470;2023-05-10T20:53:01;13.40;99.90
28189;DHT22;15471;51.166;4.470;2023-05-10T20:55:27;13.40;99.90
28189;DHT22;15471;51.166;4.470;2023-05-10T20:57:54;13.40;99.90
28189;DHT22;15471;51.166;4.470;2023-05-10T21:00:20;13.30;99.90
28189;DHT22;15471;51.166;4.470;2023-05-10T21:02:46;13.30;99.90
28189;DHT22;15471;51.166;4.470;2023-05-10T21:05:12;13.30;99.90
28189;DHT22;15471;51.166;4.470;2023-05-10T21:07:38;13.30;99.90
28189;DHT22;15471;51.166;4.470;2023-05-10T21:10:06;13.30;99.90
28189;DHT22;15471;51.166;4.470;2023-05-10T21:12:32;13.30;99.90
28189;DHT22;15471;51.166;4.470;2023-05-10T21:14:58;13.30;99.90
28189;DHT22;15471;51.166;4.470;2023-05-10T21:17:25;13.30;99.90